Terminal Aerodrome Forecast
Issued by NWS Sioux Falls, SD

Home | Current Version | Previous Version | Text Only | Print | Product List | Glossary On
Versions: 1 2 3 4 5 6 7 8 9 10 11 12 13
568
FTUS43 KFSD 212320
TAFFSD
TAF
KFSD 212320Z 2200/2224 19006KT P6SM SKC
     FM220600 16008KT P6SM SCT150 WS020/20040KT
     FM221400 18013G22KT P6SM SCT150
     FM221800 19014G26KT P6SM SCT250=

USA.gov is the U.S. government's official web portal to all federal, state and local government web resources and services.